createdAt,value
2023-04-14T00:00:40.554Z,11
2023-04-14T00:01:40.646Z,10.9
2023-04-14T00:02:40.662Z,10.9
2023-04-14T00:03:40.810Z,10.9
2023-04-14T00:04:40.816Z,10.9
2023-04-14T00:05:40.630Z,10.9
2023-04-14T00:06:40.699Z,10.9
2023-04-14T00:07:40.582Z,10.9
2023-04-14T00:08:40.659Z,10.9
2023-04-14T00:09:40.583Z,10.9
2023-04-14T00:10:40.611Z,10.9
2023-04-14T00:11:40.606Z,10.9
2023-04-14T00:12:40.592Z,10.9
2023-04-14T00:13:40.635Z,10.9
2023-04-14T00:14:40.618Z,10.9
2023-04-14T00:15:40.688Z,10.9
2023-04-14T00:16:40.665Z,10.9
2023-04-14T00:17:40.864Z,10.9
2023-04-14T00:18:40.607Z,10.9
2023-04-14T00:19:40.637Z,10.9
2023-04-14T00:20:40.633Z,10.9
2023-04-14T00:21:40.585Z,10.9
2023-04-14T00:22:40.578Z,10.9
2023-04-14T00:23:40.608Z,10.9
2023-04-14T00:24:40.645Z,10.9
2023-04-14T00:25:40.590Z,10.9
2023-04-14T00:26:40.633Z,10.9
2023-04-14T00:27:40.604Z,10.9
2023-04-14T00:28:40.649Z,10.9
2023-04-14T00:29:40.658Z,10.9
2023-04-14T00:30:40.604Z,10.9
2023-04-14T00:31:40.701Z,10.9
2023-04-14T00:32:40.661Z,10.9
2023-04-14T00:33:40.690Z,10.9
2023-04-14T00:34:40.601Z,10.9
2023-04-14T00:35:40.634Z,10.9
2023-04-14T00:36:40.614Z,10.6
2023-04-14T00:37:40.648Z,10.6
2023-04-14T00:38:40.647Z,10.6
2023-04-14T00:39:40.652Z,10.6
2023-04-14T00:40:40.649Z,10.6
2023-04-14T00:41:40.655Z,10.6
2023-04-14T00:42:40.657Z,10.6
2023-04-14T00:43:40.606Z,10.6
2023-04-14T00:44:40.697Z,10.6
2023-04-14T00:45:40.673Z,10.6
2023-04-14T00:46:40.696Z,10.7
2023-04-14T00:47:40.706Z,10.7
2023-04-14T00:48:40.647Z,10.7
2023-04-14T00:49:40.708Z,10.7
2023-04-14T00:50:40.728Z,10.7
2023-04-14T00:51:40.734Z,10.7
2023-04-14T00:52:40.704Z,10.7
2023-04-14T00:53:40.724Z,10.7
2023-04-14T00:54:40.637Z,10.7
2023-04-14T00:55:40.721Z,10.7
2023-04-14T00:56:40.661Z,10.7
2023-04-14T00:57:40.775Z,10.7
2023-04-14T00:58:40.640Z,10.7
2023-04-14T00:59:40.645Z,10.7
2023-04-14T01:00:40.832Z,10.7
2023-04-14T01:01:40.749Z,10.7
2023-04-14T01:02:41.014Z,10.7
2023-04-14T01:03:40.728Z,10.7
2023-04-14T01:04:53.035Z,10.7
2023-04-14T01:05:40.665Z,10.7
2023-04-14T01:06:40.656Z,10.7
2023-04-14T01:07:40.653Z,10.7
2023-04-14T01:08:40.625Z,10.7
2023-04-14T01:09:40.614Z,10.7
2023-04-14T01:10:40.704Z,10.7
2023-04-14T01:11:40.634Z,10.7
2023-04-14T01:12:40.671Z,10.7
2023-04-14T01:13:40.666Z,10.7
2023-04-14T01:14:40.665Z,11
2023-04-14T01:15:40.749Z,11
2023-04-14T01:16:40.697Z,11
2023-04-14T01:17:40.779Z,11
2023-04-14T01:18:40.733Z,11
2023-04-14T01:19:40.670Z,11
2023-04-14T01:20:40.661Z,11
2023-04-14T01:21:40.653Z,11
2023-04-14T01:22:40.674Z,11
2023-04-14T01:23:40.729Z,11
2023-04-14T01:24:40.680Z,11
2023-04-14T01:25:40.656Z,11
2023-04-14T01:26:40.658Z,11
2023-04-14T01:27:40.674Z,11
2023-04-14T01:28:40.738Z,11
2023-04-14T01:29:40.668Z,11
2023-04-14T01:30:40.681Z,11
2023-04-14T01:31:40.703Z,11
2023-04-14T01:32:40.694Z,11
2023-04-14T01:33:40.685Z,11
2023-04-14T01:34:40.729Z,11
2023-04-14T01:35:40.708Z,10.9
2023-04-14T01:36:40.669Z,10.9
2023-04-14T01:37:40.660Z,10.9
2023-04-14T01:38:40.672Z,10.9
2023-04-14T01:39:40.701Z,10.9
2023-04-14T01:40:40.668Z,10.9
2023-04-14T01:41:40.681Z,10.9
2023-04-14T01:42:40.679Z,10.9
2023-04-14T01:43:40.659Z,10.9
2023-04-14T01:44:40.661Z,10.8
2023-04-14T01:45:40.727Z,10.8
2023-04-14T01:46:40.691Z,10.8
2023-04-14T01:47:40.706Z,10.8
2023-04-14T01:48:40.682Z,10.8
2023-04-14T01:49:40.688Z,10.8
2023-04-14T01:50:40.666Z,10.8
2023-04-14T01:51:40.676Z,10.8
2023-04-14T01:52:40.676Z,10.8
2023-04-14T01:53:40.643Z,10.8
2023-04-14T01:54:40.683Z,10.8
2023-04-14T01:55:40.785Z,10.8
2023-04-14T01:56:40.666Z,10.8
2023-04-14T01:57:40.680Z,10.8
2023-04-14T01:58:40.660Z,10.8
2023-04-14T01:59:40.686Z,10.8
2023-04-14T02:00:40.776Z,10.8
2023-04-14T02:01:40.680Z,10.8
2023-04-14T02:02:40.801Z,10.8
2023-04-14T02:03:40.775Z,10.8
2023-04-14T02:04:40.679Z,10.8
2023-04-14T02:05:40.686Z,10.8
2023-04-14T02:06:40.682Z,10.8
2023-04-14T02:07:40.685Z,10.8
2023-04-14T02:08:40.701Z,10.8
2023-04-14T02:09:40.680Z,10.8
2023-04-14T02:10:40.760Z,10.8
2023-04-14T02:11:40.710Z,10.8
2023-04-14T02:12:40.691Z,10.8
2023-04-14T02:13:40.684Z,10.8
2023-04-14T02:14:40.703Z,10.8
2023-04-14T02:15:40.697Z,10.8
2023-04-14T02:16:40.816Z,10.8
2023-04-14T02:17:40.793Z,10.8
2023-04-14T02:18:40.727Z,10.8
2023-04-14T02:19:40.690Z,10.8
2023-04-14T02:20:40.689Z,10.8
2023-04-14T02:21:40.675Z,10.8
2023-04-14T02:22:40.675Z,10.8
2023-04-14T02:23:40.710Z,10.8
2023-04-14T02:24:40.685Z,10.8
2023-04-14T02:25:40.670Z,10.8
2023-04-14T02:26:40.668Z,10.8
2023-04-14T02:27:40.674Z,10.8
2023-04-14T02:28:40.672Z,10.8
2023-04-14T02:29:40.716Z,10.8
2023-04-14T02:30:40.687Z,10.8
2023-04-14T02:31:40.684Z,10.7
2023-04-14T02:32:40.764Z,10.7
2023-04-14T02:33:40.678Z,10.7
2023-04-14T02:34:40.687Z,10.7
2023-04-14T02:35:40.731Z,10.7
2023-04-14T02:36:40.679Z,10.7
2023-04-14T02:37:40.716Z,10.7
2023-04-14T02:38:40.699Z,10.7
2023-04-14T02:39:40.667Z,10.7
2023-04-14T02:40:40.717Z,10.7
2023-04-14T02:41:40.685Z,10.7
2023-04-14T02:42:40.671Z,10.7
2023-04-14T02:43:40.713Z,10.7
2023-04-14T02:44:40.704Z,10.7
2023-04-14T02:45:40.740Z,10.6
2023-04-14T02:46:40.761Z,10.6
2023-04-14T02:47:40.770Z,10.6
2023-04-14T02:48:40.674Z,10.6
2023-04-14T02:49:40.688Z,10.6
2023-04-14T02:50:40.720Z,10.6
2023-04-14T02:51:40.720Z,10.6
2023-04-14T02:52:40.683Z,10.6
2023-04-14T02:53:40.681Z,10.6
2023-04-14T02:54:40.692Z,10.6
2023-04-14T02:55:40.707Z,10.6
2023-04-14T02:56:40.685Z,10.6
2023-04-14T02:57:40.728Z,10.6
2023-04-14T02:58:40.676Z,10.6
2023-04-14T02:59:40.757Z,10.6
2023-04-14T03:00:40.684Z,10.6
2023-04-14T03:01:40.773Z,10.6
2023-04-14T03:02:40.749Z,10.6
2023-04-14T03:03:40.717Z,10.6
2023-04-14T03:04:40.797Z,10.6
2023-04-14T03:05:40.693Z,10.6
2023-04-14T03:06:40.700Z,10.6
2023-04-14T03:07:40.720Z,10.6
2023-04-14T03:08:40.763Z,10.6
2023-04-14T03:09:40.702Z,10.6
2023-04-14T03:10:40.713Z,10.6
2023-04-14T03:11:40.686Z,10.6
2023-04-14T03:12:40.694Z,10.6
2023-04-14T03:13:40.910Z,10.6
2023-04-14T03:14:40.766Z,10.6
2023-04-14T03:15:40.734Z,10.6
2023-04-14T03:16:40.709Z,10.6
2023-04-14T03:17:40.784Z,10.6
2023-04-14T03:18:40.721Z,10.6
2023-04-14T03:19:40.733Z,10.6
2023-04-14T03:20:40.697Z,10.6
2023-04-14T03:21:40.759Z,10.6
2023-04-14T03:22:40.795Z,10.6
2023-04-14T03:23:40.700Z,10.6
2023-04-14T03:24:40.721Z,10.6
2023-04-14T03:25:40.747Z,10.6
2023-04-14T03:26:40.707Z,10.6
2023-04-14T03:27:40.706Z,10.6
2023-04-14T03:28:40.731Z,10.6
2023-04-14T03:29:40.719Z,10.6
2023-04-14T03:30:40.735Z,10.6
2023-04-14T03:31:40.735Z,10.6
2023-04-14T03:32:40.765Z,10.6
2023-04-14T03:33:40.718Z,10.6
2023-04-14T03:34:40.749Z,10.6
2023-04-14T03:35:40.725Z,10.6
2023-04-14T03:36:40.713Z,10.6
2023-04-14T03:37:40.729Z,10.6
2023-04-14T03:38:40.731Z,10.6
2023-04-14T03:39:40.754Z,10.6
2023-04-14T03:40:40.805Z,10.6
2023-04-14T03:41:40.720Z,10.6
2023-04-14T03:42:40.745Z,10.6
2023-04-14T03:43:40.730Z,10.6
2023-04-14T03:44:40.738Z,10.6
2023-04-14T03:45:40.759Z,10.6
2023-04-14T03:46:40.835Z,10.6
2023-04-14T03:47:40.840Z,10.6
2023-04-14T03:48:40.722Z,10.6
2023-04-14T03:49:40.718Z,10.6
2023-04-14T03:50:40.723Z,10.6
2023-04-14T03:51:40.733Z,10.6
2023-04-14T03:52:40.763Z,10.6
2023-04-14T03:53:40.748Z,10.6
2023-04-14T03:54:40.723Z,10.6
2023-04-14T03:55:40.738Z,10.8
2023-04-14T03:56:40.731Z,10.8
2023-04-14T03:57:40.782Z,10.8
2023-04-14T03:58:40.768Z,10.8
2023-04-14T03:59:40.737Z,10.8
2023-04-14T04:00:40.718Z,10.8
2023-04-14T04:01:40.834Z,10.8
2023-04-14T04:02:40.936Z,10.8
2023-04-14T04:03:41.028Z,10.8
2023-04-14T04:04:40.876Z,10.7
2023-04-14T04:05:40.735Z,10.7
2023-04-14T04:06:40.740Z,10.7
2023-04-14T04:07:40.737Z,10.7
2023-04-14T04:08:40.745Z,10.7
2023-04-14T04:09:40.776Z,10.7
2023-04-14T04:10:40.730Z,10.7
2023-04-14T04:11:40.740Z,10.7
2023-04-14T04:12:40.796Z,10.6
2023-04-14T04:13:40.801Z,10.6
2023-04-14T04:14:40.776Z,10.6
2023-04-14T04:15:40.754Z,10.7
2023-04-14T04:16:40.793Z,10.7
2023-04-14T04:17:40.790Z,10.6
2023-04-14T04:18:40.742Z,10.6
2023-04-14T04:19:40.800Z,10.6
2023-04-14T04:20:40.800Z,10.6
2023-04-14T04:21:40.784Z,10.6
2023-04-14T04:22:40.742Z,10.6
2023-04-14T04:23:40.737Z,10.6
2023-04-14T04:24:40.778Z,10.6
2023-04-14T04:25:40.791Z,10.6
2023-04-14T04:26:40.762Z,10.6
2023-04-14T04:27:40.746Z,10.6
2023-04-14T04:28:40.759Z,10.6
2023-04-14T04:29:40.738Z,10.6
2023-04-14T04:30:40.771Z,10.6
2023-04-14T04:31:40.758Z,10.6
2023-04-14T04:32:40.824Z,10.6
2023-04-14T04:33:40.751Z,10.6
2023-04-14T04:34:40.749Z,10.6
2023-04-14T04:35:40.834Z,10.6
2023-04-14T04:36:40.752Z,10.6
2023-04-14T04:37:40.787Z,10.6
2023-04-14T04:38:40.754Z,10.6
2023-04-14T04:39:42.802Z,10.6
2023-04-14T04:40:40.808Z,10.6
2023-04-14T04:41:40.767Z,10.6
2023-04-14T04:42:40.750Z,10.6
2023-04-14T04:43:40.751Z,10.6
2023-04-14T04:44:40.811Z,10.6
2023-04-14T04:45:40.813Z,10.6
2023-04-14T04:46:40.802Z,10.6
2023-04-14T04:47:40.811Z,10.6
2023-04-14T04:48:40.749Z,10.6
2023-04-14T04:49:40.744Z,10.6
2023-04-14T04:50:40.791Z,10.6
2023-04-14T04:51:40.790Z,10.6
2023-04-14T04:52:40.759Z,10.6
2023-04-14T04:53:40.744Z,10.6
2023-04-14T04:54:40.755Z,10.6
2023-04-14T04:55:40.786Z,10.6
2023-04-14T04:56:41.785Z,10.6
2023-04-14T04:57:40.784Z,10.6
2023-04-14T04:58:40.847Z,10.6
2023-04-14T04:59:40.759Z,10.6
2023-04-14T05:00:40.826Z,10.6
2023-04-14T05:01:40.800Z,10.6
2023-04-14T05:02:40.929Z,10.6
2023-04-14T05:03:40.784Z,10.6
2023-04-14T05:04:40.827Z,10.6
2023-04-14T05:05:40.794Z,10.6
2023-04-14T05:06:40.790Z,10.6
2023-04-14T05:07:40.823Z,10.6
2023-04-14T05:08:40.748Z,10.6
2023-04-14T05:09:40.760Z,10.6
2023-04-14T05:10:40.751Z,10.6
2023-04-14T05:11:40.770Z,10.6
2023-04-14T05:12:40.775Z,10.6
2023-04-14T05:13:40.798Z,10.6
2023-04-14T05:14:40.773Z,10.6
2023-04-14T05:15:40.852Z,10.6
2023-04-14T05:16:40.776Z,10.7
2023-04-14T05:17:40.787Z,10.7
2023-04-14T05:18:40.773Z,10.7
2023-04-14T05:19:40.804Z,10.7
2023-04-14T05:20:40.771Z,10.7
2023-04-14T05:21:40.762Z,10.7
2023-04-14T05:22:40.765Z,10.7
2023-04-14T05:23:40.773Z,10.7
2023-04-14T05:24:40.769Z,10.7
2023-04-14T05:25:40.814Z,10.7
2023-04-14T05:27:40.766Z,10.7
2023-04-14T05:28:40.755Z,10.7
2023-04-14T05:29:40.778Z,10.7
2023-04-14T05:30:40.821Z,10.7
2023-04-14T05:31:40.979Z,10.7
2023-04-14T05:32:40.777Z,10.7
2023-04-14T05:33:40.766Z,10.7
2023-04-14T05:34:40.775Z,10.7
2023-04-14T05:35:40.814Z,10.7
2023-04-14T05:36:40.821Z,10.7
2023-04-14T05:37:40.819Z,10.7
2023-04-14T05:38:40.774Z,10.7
2023-04-14T05:39:40.769Z,10.7
2023-04-14T05:40:40.766Z,10.7
2023-04-14T05:41:40.829Z,10.7
2023-04-14T05:42:40.777Z,10.7
2023-04-14T05:43:40.853Z,10.7
2023-04-14T05:44:40.776Z,10.7
2023-04-14T05:45:40.777Z,10.7
2023-04-14T05:46:40.893Z,10.7
2023-04-14T05:47:40.813Z,10.7
2023-04-14T05:48:40.807Z,10.7
2023-04-14T05:49:40.787Z,10.7
2023-04-14T05:50:40.820Z,10.7
2023-04-14T05:51:40.848Z,10.7
2023-04-14T05:52:40.850Z,10.7
2023-04-14T05:53:40.854Z,10.7
2023-04-14T05:54:42.952Z,10.7
2023-04-14T05:55:40.842Z,10.7
2023-04-14T05:56:40.833Z,10.7
2023-04-14T05:57:40.870Z,10.9
2023-04-14T05:58:40.815Z,10.9
2023-04-14T05:59:40.821Z,10.9
2023-04-14T06:00:40.823Z,10.9
2023-04-14T06:01:40.844Z,10.9
2023-04-14T06:02:41.005Z,10.9
2023-04-14T06:03:41.060Z,10.9
2023-04-14T06:04:40.987Z,10.9
2023-04-14T06:05:40.865Z,10.9
2023-04-14T06:06:40.856Z,10.9
2023-04-14T06:07:40.832Z,10.9
2023-04-14T06:08:40.839Z,10.9
2023-04-14T06:09:40.835Z,10.9
2023-04-14T06:10:40.856Z,10.9
2023-04-14T06:11:40.860Z,10.9
2023-04-14T06:12:40.837Z,10.9
2023-04-14T06:13:40.846Z,10.9
2023-04-14T06:14:40.881Z,10.9
2023-04-14T06:15:40.840Z,11.1
2023-04-14T06:16:40.881Z,11.1
2023-04-14T06:17:40.865Z,11.1
2023-04-14T06:18:40.852Z,11.1
2023-04-14T06:19:40.845Z,11.1
2023-04-14T06:20:40.923Z,11.1
2023-04-14T06:21:40.871Z,11.1
2023-04-14T06:22:40.871Z,11.1
2023-04-14T06:23:40.889Z,11.1
2023-04-14T06:24:40.882Z,11.1
2023-04-14T06:25:40.865Z,11.1
2023-04-14T06:26:40.869Z,11.1
2023-04-14T06:27:40.893Z,11.1
2023-04-14T06:28:43.287Z,11.1
2023-04-14T06:29:40.906Z,11.1
2023-04-14T06:30:40.877Z,11.1
2023-04-14T06:31:40.925Z,11.1
2023-04-14T06:32:40.908Z,11.1
2023-04-14T06:33:40.921Z,11.1
2023-04-14T06:34:40.948Z,11.1
2023-04-14T06:35:40.958Z,11.1
2023-04-14T06:36:40.940Z,11.1
2023-04-14T06:37:40.900Z,11.1
2023-04-14T06:38:40.911Z,11.1
2023-04-14T06:39:40.907Z,11.1
2023-04-14T06:40:40.909Z,11.1
2023-04-14T06:41:40.916Z,11.1
2023-04-14T06:42:40.917Z,11.1
2023-04-14T06:43:40.910Z,11.1
2023-04-14T06:44:40.921Z,11.1
2023-04-14T06:45:40.945Z,11.1
2023-04-14T06:46:40.913Z,11.1
2023-04-14T06:47:41.037Z,11.1
2023-04-14T06:48:40.964Z,11.1
2023-04-14T06:49:40.879Z,11.1
2023-04-14T06:50:42.688Z,11.1
2023-04-14T06:51:40.918Z,11.1
2023-04-14T06:52:40.933Z,11.4
2023-04-14T06:53:40.915Z,11.4
2023-04-14T06:54:40.890Z,11.4
2023-04-14T06:55:40.945Z,11.4
2023-04-14T06:56:40.916Z,11.4
2023-04-14T06:57:40.973Z,11.4
2023-04-14T06:58:40.944Z,11.4
2023-04-14T06:59:40.932Z,11.4
2023-04-14T07:00:40.969Z,11.4
2023-04-14T07:01:40.968Z,11.4
2023-04-14T07:02:41.037Z,11.4
2023-04-14T07:03:40.968Z,11.4
2023-04-14T07:04:40.981Z,11.4
2023-04-14T07:05:40.920Z,11.4
2023-04-14T07:06:40.931Z,11.4
2023-04-14T07:07:40.928Z,11.4
2023-04-14T07:08:40.938Z,11.4
2023-04-14T07:09:41.009Z,11.4
2023-04-14T07:10:41.008Z,11.4
2023-04-14T07:11:40.893Z,11.4
2023-04-14T07:12:40.932Z,11.4
2023-04-14T07:13:40.933Z,11.4
2023-04-14T07:14:40.961Z,11.4
2023-04-14T07:15:40.985Z,11.4
2023-04-14T07:16:40.911Z,11.4
2023-04-14T07:17:40.945Z,11.4
2023-04-14T07:18:41.025Z,11.4
2023-04-14T07:19:40.906Z,11.4
2023-04-14T07:20:40.953Z,11.4
2023-04-14T07:21:40.908Z,11.4
2023-04-14T07:22:40.924Z,11.4
2023-04-14T07:23:40.929Z,11.4
2023-04-14T07:24:40.922Z,11.4
2023-04-14T07:25:40.962Z,11.4
2023-04-14T07:26:41.021Z,11.4
2023-04-14T07:27:47.321Z,11.4
2023-04-14T07:28:40.959Z,11.4
2023-04-14T07:29:40.935Z,11.4
2023-04-14T07:30:40.952Z,11.4
2023-04-14T07:31:41.002Z,11.9
2023-04-14T07:32:41.006Z,11.9
2023-04-14T07:33:40.997Z,11.9
2023-04-14T07:34:40.999Z,11.9
2023-04-14T07:35:50.976Z,11.9
2023-04-14T07:36:40.975Z,11.9
2023-04-14T07:37:41.021Z,11.9
2023-04-14T07:38:40.985Z,11.9
2023-04-14T07:39:40.984Z,11.9
2023-04-14T07:40:40.984Z,11.9
2023-04-14T07:41:40.961Z,11.9
2023-04-14T07:42:41.000Z,11.9
2023-04-14T07:43:41.000Z,11.9
2023-04-14T07:44:40.965Z,11.9
2023-04-14T07:45:40.973Z,11.9
2023-04-14T07:46:41.106Z,11.9
2023-04-14T07:47:41.016Z,11.9
2023-04-14T07:48:40.973Z,11.9
2023-04-14T07:49:41.003Z,11.9
2023-04-14T07:50:41.006Z,11.9
2023-04-14T07:51:40.991Z,11.9
2023-04-14T07:52:41.017Z,11.9
2023-04-14T07:53:41.023Z,11.9
2023-04-14T07:54:41.018Z,11.9
2023-04-14T07:55:40.989Z,11.9
2023-04-14T07:56:41.000Z,11.9
2023-04-14T07:57:41.019Z,11.9
2023-04-14T07:58:41.015Z,11.9
2023-04-14T07:59:41.059Z,11.9
2023-04-14T08:00:41.017Z,11.7
2023-04-14T08:01:41.070Z,11.7
2023-04-14T08:02:41.197Z,11.7
2023-04-14T08:03:43.586Z,11.7
2023-04-14T08:04:41.024Z,11.7
2023-04-14T08:05:41.076Z,11.7
2023-04-14T08:06:41.076Z,11.7
2023-04-14T08:07:41.047Z,11.7
2023-04-14T08:08:41.033Z,11.7
2023-04-14T08:09:41.058Z,11.7
2023-04-14T08:10:41.033Z,11.7
2023-04-14T08:11:41.056Z,11.7
2023-04-14T08:12:41.101Z,11.7
2023-04-14T08:13:41.094Z,11.7
2023-04-14T08:14:41.140Z,11.7
2023-04-14T08:15:41.136Z,11.7
2023-04-14T08:16:41.138Z,11.7
2023-04-14T08:17:41.153Z,11.7
2023-04-14T08:18:41.076Z,11.7
2023-04-14T08:19:42.069Z,11.7
2023-04-14T08:20:41.125Z,11.7
2023-04-14T08:21:41.078Z,11.7
2023-04-14T08:22:41.078Z,11.7
2023-04-14T08:23:41.089Z,11.7
2023-04-14T08:24:41.109Z,11.2
2023-04-14T08:25:41.110Z,11.2
2023-04-14T08:26:41.141Z,11.2
2023-04-14T08:27:41.110Z,11.2
2023-04-14T08:28:41.090Z,11.2
2023-04-14T08:29:41.108Z,11.2
2023-04-14T08:30:41.148Z,11.2
2023-04-14T08:31:41.232Z,11.2
2023-04-14T08:32:41.180Z,11.2
2023-04-14T08:33:41.127Z,11.2
2023-04-14T08:35:38.738Z,11.2
2023-04-14T08:35:42.770Z,11.2
2023-04-14T08:36:41.160Z,11.2
2023-04-14T08:37:41.159Z,11.2
2023-04-14T08:38:41.184Z,11.2
2023-04-14T08:39:41.141Z,11.2
2023-04-14T08:40:41.182Z,11.2
2023-04-14T08:41:41.134Z,11.2
2023-04-14T08:42:41.167Z,11.2
2023-04-14T08:43:41.195Z,11.2
2023-04-14T08:44:41.189Z,11.2
2023-04-14T08:45:41.389Z,11.2
2023-04-14T08:46:41.153Z,11.2
2023-04-14T08:47:41.277Z,11.2
2023-04-14T08:48:41.184Z,11.2
2023-04-14T08:49:41.209Z,11.2
2023-04-14T08:50:41.189Z,11.2
2023-04-14T08:51:41.162Z,11.2
2023-04-14T08:52:41.280Z,11.2
2023-04-14T08:53:41.205Z,11.2
2023-04-14T08:54:41.209Z,11.2
2023-04-14T08:55:41.261Z,11.2
2023-04-14T08:56:41.153Z,11.2
2023-04-14T08:57:41.185Z,11.2
2023-04-14T08:58:41.217Z,11.2
2023-04-14T08:59:41.177Z,11.2
2023-04-14T09:00:41.291Z,11.3
2023-04-14T09:01:42.195Z,11.3
2023-04-14T09:02:41.401Z,11.3
2023-04-14T09:03:41.338Z,11.3
2023-04-14T09:04:41.463Z,11.3
2023-04-14T09:05:41.201Z,11.3
2023-04-14T09:06:41.183Z,11.3
2023-04-14T09:07:41.204Z,11.3
2023-04-14T09:08:41.186Z,11.3
2023-04-14T09:09:41.247Z,11.3
2023-04-14T09:10:41.215Z,11.3
2023-04-14T09:11:41.183Z,11.3
2023-04-14T09:12:42.014Z,11.3
2023-04-14T09:13:41.211Z,11.3
2023-04-14T09:14:41.215Z,11.3
2023-04-14T09:15:41.199Z,11.3
2023-04-14T09:16:41.263Z,11.3
2023-04-14T09:17:41.252Z,11.3
2023-04-14T09:18:41.202Z,11.3
2023-04-14T09:20:36.347Z,11.3
2023-04-14T09:20:41.990Z,11.3
2023-04-14T09:21:51.710Z,11.3
2023-04-14T09:22:41.281Z,11.3
2023-04-14T09:23:41.277Z,11.3
2023-04-14T09:24:41.276Z,11.3
2023-04-14T09:25:41.241Z,11.3
2023-04-14T09:26:41.278Z,11.3
2023-04-14T09:27:41.272Z,11.3
2023-04-14T09:28:41.301Z,11.3
2023-04-14T09:29:41.252Z,11.3
2023-04-14T09:30:41.289Z,11.3
2023-04-14T09:31:41.313Z,11.3
2023-04-14T09:32:41.328Z,11.3
2023-04-14T09:33:41.283Z,11.3
2023-04-14T09:34:41.255Z,11.3
2023-04-14T09:35:41.416Z,11.3
2023-04-14T09:36:41.274Z,11.3
2023-04-14T09:37:41.274Z,11.3
2023-04-14T09:38:41.278Z,11.3
2023-04-14T09:39:41.275Z,11.3
2023-04-14T09:40:41.353Z,11.3
2023-04-14T09:41:41.269Z,11.3
2023-04-14T09:42:41.284Z,11.2
2023-04-14T09:43:41.337Z,11.2
2023-04-14T09:44:41.332Z,11.2
2023-04-14T09:45:41.327Z,11.2
2023-04-14T09:46:41.399Z,11.2
2023-04-14T09:47:41.407Z,11.2
2023-04-14T09:48:41.333Z,11.2
2023-04-14T09:49:41.276Z,11.2
2023-04-14T09:50:41.285Z,11.2
2023-04-14T09:51:41.296Z,11.2
2023-04-14T09:52:41.332Z,11.2
2023-04-14T09:53:41.325Z,11.2
2023-04-14T09:54:41.337Z,11.2
2023-04-14T09:55:41.366Z,11.2
2023-04-14T09:56:41.306Z,11.2
2023-04-14T09:57:41.341Z,11.2
2023-04-14T09:58:41.471Z,11.3
2023-04-14T09:59:41.366Z,11.3
2023-04-14T10:00:41.385Z,11.3
2023-04-14T10:01:41.440Z,11.3
2023-04-14T10:02:41.467Z,11.3
2023-04-14T10:03:41.370Z,11.3
2023-04-14T10:04:41.463Z,11.3
2023-04-14T10:05:41.360Z,11.3
2023-04-14T10:06:41.403Z,11.3
2023-04-14T10:07:41.404Z,11.3
2023-04-14T10:08:41.369Z,11.3
2023-04-14T10:09:41.368Z,11.3
2023-04-14T10:10:41.413Z,11.3
2023-04-14T10:11:41.381Z,11.3
2023-04-14T10:12:41.383Z,11.3
2023-04-14T10:13:41.462Z,11.3
2023-04-14T10:14:41.396Z,11.3
2023-04-14T10:15:41.399Z,11.3
2023-04-14T10:16:41.367Z,11.3
2023-04-14T10:17:41.407Z,11.3
2023-04-14T10:18:41.391Z,11.3
2023-04-14T10:19:41.389Z,11.3
2023-04-14T10:20:41.385Z,11.3
2023-04-14T10:21:41.416Z,11.3
2023-04-14T10:22:41.416Z,11.2
2023-04-14T10:23:41.469Z,11.2
2023-04-14T10:24:41.505Z,11.2
2023-04-14T10:25:41.410Z,11.2
2023-04-14T10:26:41.413Z,11.2
2023-04-14T10:27:41.463Z,11.2
2023-04-14T10:28:41.456Z,11.2
2023-04-14T10:29:41.459Z,11.2
2023-04-14T10:30:41.457Z,11.2
2023-04-14T10:31:41.458Z,11.2
2023-04-14T10:32:41.611Z,11.2
2023-04-14T10:33:41.467Z,11.2
2023-04-14T10:34:42.715Z,11.2
2023-04-14T10:35:41.439Z,11.2
2023-04-14T10:36:41.505Z,11.2
2023-04-14T10:37:41.506Z,11.2
2023-04-14T10:38:41.448Z,11.2
2023-04-14T10:39:41.484Z,11.2
2023-04-14T10:40:41.450Z,11.2
2023-04-14T10:41:41.439Z,11.2
2023-04-14T10:42:41.472Z,11.2
2023-04-14T10:43:41.472Z,11.2
2023-04-14T10:44:41.524Z,11.2
2023-04-14T10:45:41.491Z,11.2
2023-04-14T10:46:41.505Z,11.2
2023-04-14T10:47:41.500Z,11.2
2023-04-14T10:48:41.488Z,11.2
2023-04-14T10:49:41.523Z,11.2
2023-04-14T10:50:41.502Z,11.2
2023-04-14T10:51:41.500Z,11.2
2023-04-14T10:52:41.475Z,11.4
2023-04-14T10:53:41.459Z,11.4
2023-04-14T10:54:41.497Z,11.4
2023-04-14T10:55:51.274Z,11.4
2023-04-14T10:56:41.481Z,11.4
2023-04-14T10:57:41.518Z,11.4
2023-04-14T10:58:41.478Z,11.4
2023-04-14T10:59:41.551Z,11.4
2023-04-14T11:00:41.547Z,11.4
2023-04-14T11:01:41.474Z,11.4
2023-04-14T11:02:41.602Z,11.4
2023-04-14T11:03:41.764Z,11.4
2023-04-14T11:04:41.484Z,11.4
2023-04-14T11:05:41.553Z,11.4
2023-04-14T11:06:41.517Z,11.4
2023-04-14T11:07:41.480Z,11.4
2023-04-14T11:08:41.547Z,11.4
2023-04-14T11:09:41.537Z,11.4
2023-04-14T11:10:41.590Z,11.4
2023-04-14T11:11:41.503Z,11.4
2023-04-14T11:12:41.555Z,11.4
2023-04-14T11:13:41.541Z,11.4
2023-04-14T11:14:41.583Z,11.4
2023-04-14T11:15:41.502Z,11.4
2023-04-14T11:16:47.663Z,11.4
2023-04-14T11:17:41.656Z,11.4
2023-04-14T11:18:43.351Z,11.4
2023-04-14T11:19:41.558Z,11.4
2023-04-14T11:20:41.576Z,11.4
2023-04-14T11:21:41.519Z,11.4
2023-04-14T11:22:41.636Z,11.4
2023-04-14T11:23:41.607Z,11.4
2023-04-14T11:24:41.629Z,11.4
2023-04-14T11:25:41.581Z,11.4
2023-04-14T11:26:41.591Z,11.4
2023-04-14T11:27:41.528Z,11.4
2023-04-14T11:28:41.526Z,11.4
2023-04-14T11:29:41.548Z,11.4
2023-04-14T11:30:41.581Z,11
2023-04-14T11:31:41.623Z,11
2023-04-14T11:32:41.626Z,11
2023-04-14T11:33:41.749Z,11
2023-04-14T11:34:41.595Z,11
2023-04-14T11:35:41.604Z,10.9
2023-04-14T11:36:41.537Z,10.9
2023-04-14T11:37:41.615Z,10.9
2023-04-14T11:38:41.618Z,10.9
2023-04-14T11:39:41.600Z,10.9
2023-04-14T11:40:41.600Z,10.9
2023-04-14T11:41:41.628Z,10.9
2023-04-14T11:42:41.583Z,10.5
2023-04-14T11:43:41.597Z,10.4
2023-04-14T11:44:41.604Z,10.4
2023-04-14T11:45:41.669Z,10.4
2023-04-14T11:46:41.880Z,10.4
2023-04-14T11:47:41.705Z,10.4
2023-04-14T11:48:41.631Z,10.4
2023-04-14T11:49:41.631Z,10.4
2023-04-14T11:50:41.661Z,10.4
2023-04-14T11:51:41.600Z,10.4
2023-04-14T11:52:41.647Z,10.4
2023-04-14T11:53:41.575Z,10.4
2023-04-14T11:54:41.741Z,10.4
2023-04-14T11:55:41.626Z,10.4
2023-04-14T11:56:41.624Z,10.4
2023-04-14T11:57:41.631Z,10.2
2023-04-14T11:58:41.645Z,10.2
2023-04-14T11:59:41.589Z,10.2
2023-04-14T12:00:41.619Z,10.2
2023-04-14T12:01:41.670Z,10.2
2023-04-14T12:02:41.761Z,10.2
2023-04-14T12:03:41.873Z,10.2
2023-04-14T12:04:41.867Z,10.2
2023-04-14T12:05:41.919Z,10.2
2023-04-14T12:06:41.672Z,10.2
2023-04-14T12:07:41.656Z,10.2
2023-04-14T12:08:41.664Z,10.2
2023-04-14T12:09:41.656Z,10.2
2023-04-14T12:10:43.690Z,10.2
2023-04-14T12:11:41.676Z,10.2
2023-04-14T12:12:41.715Z,10.2
2023-04-14T12:13:41.798Z,10.2
2023-04-14T12:14:41.686Z,10.2
2023-04-14T12:15:41.750Z,10.2
2023-04-14T12:16:41.797Z,10.2
2023-04-14T12:17:41.721Z,10.2
2023-04-14T12:18:41.663Z,10.2
2023-04-14T12:19:41.660Z,10.2
2023-04-14T12:20:41.682Z,10.2
2023-04-14T12:21:41.747Z,10.2
2023-04-14T12:22:41.679Z,10.4
2023-04-14T12:23:41.774Z,10.4
2023-04-14T12:24:41.676Z,10.4
2023-04-14T12:25:41.720Z,10.4
2023-04-14T12:26:41.713Z,10.4
2023-04-14T12:27:41.715Z,10.4
2023-04-14T12:28:42.194Z,10.4
2023-04-14T12:29:41.717Z,10.4
2023-04-14T12:30:41.737Z,10.4
2023-04-14T12:31:41.806Z,10.4
2023-04-14T12:32:41.731Z,10.4
2023-04-14T12:33:41.716Z,10.4
2023-04-14T12:34:41.725Z,10.3
2023-04-14T12:35:41.768Z,10.3
2023-04-14T12:36:50.135Z,10.3
2023-04-14T12:37:41.745Z,10.3
2023-04-14T12:38:41.794Z,10.3
2023-04-14T12:39:41.713Z,10.3
2023-04-14T12:40:41.723Z,10.3
2023-04-14T12:41:41.912Z,10.3
2023-04-14T12:42:41.727Z,10.3
2023-04-14T12:43:41.755Z,10.3
2023-04-14T12:44:41.751Z,10.3
2023-04-14T12:45:41.754Z,10.3
2023-04-14T12:46:43.013Z,10.3
2023-04-14T12:47:41.830Z,10.3
2023-04-14T12:48:41.843Z,10.3
2023-04-14T12:49:41.745Z,10.3
2023-04-14T12:50:41.740Z,10.4
2023-04-14T12:51:41.856Z,10.4
2023-04-14T12:52:41.731Z,10.4
2023-04-14T12:53:41.750Z,10.4
2023-04-14T12:54:41.743Z,10.4
2023-04-14T12:55:41.736Z,10.4
2023-04-14T12:56:41.739Z,10.4
2023-04-14T12:57:41.827Z,10.4
2023-04-14T12:58:41.790Z,10.4
2023-04-14T12:59:41.793Z,10.4
2023-04-14T13:00:41.768Z,10.4
2023-04-14T13:01:41.800Z,10.4
2023-04-14T13:02:43.411Z,10.4
2023-04-14T13:03:41.930Z,10.4
2023-04-14T13:04:41.784Z,10.9
2023-04-14T13:05:41.818Z,10.9
2023-04-14T13:06:41.762Z,10.9
2023-04-14T13:07:41.847Z,10.9
2023-04-14T13:08:41.801Z,10.9
2023-04-14T13:09:41.768Z,11.5
2023-04-14T13:10:41.801Z,11.5
2023-04-14T13:11:41.836Z,11.5
2023-04-14T13:12:41.807Z,11.5
2023-04-14T13:13:41.826Z,12
2023-04-14T13:14:41.803Z,12
2023-04-14T13:16:12.760Z,12
2023-04-14T13:16:41.853Z,12
2023-04-14T13:17:41.829Z,12
2023-04-14T13:18:41.774Z,12
2023-04-14T13:19:41.763Z,12
2023-04-14T13:20:41.809Z,12
2023-04-14T13:21:41.768Z,12